createdAt,value
2023-03-10T00:00:24.482Z,246.88
2023-03-10T00:02:52.135Z,273.25
2023-03-10T00:05:20.688Z,264.77
2023-03-10T00:07:50.242Z,254.15
2023-03-10T00:10:18.660Z,248.13
2023-03-10T00:12:46.853Z,256.08
2023-03-10T00:15:14.714Z,268.08
2023-03-10T00:17:43.754Z,255.05
2023-03-10T00:20:13.375Z,260.98
2023-03-10T00:22:41.738Z,258.25
2023-03-10T00:25:11.429Z,265.88
2023-03-10T00:27:39.372Z,258.38
2023-03-10T00:30:08.474Z,243.48
2023-03-10T00:32:36.703Z,247.20
2023-03-10T00:35:07.652Z,240.75
2023-03-10T00:37:38.005Z,251.88
2023-03-10T00:40:09.321Z,237.35
2023-03-10T00:42:37.042Z,241.57
2023-03-10T00:45:05.334Z,250.40
2023-03-10T00:47:33.234Z,250.05
2023-03-10T00:50:00.924Z,243.77
2023-03-10T00:52:33.100Z,241.65
2023-03-10T00:55:00.965Z,254.23
2023-03-10T00:57:28.800Z,237.20
2023-03-10T00:59:56.643Z,240.75
2023-03-10T01:02:24.332Z,250.20
2023-03-10T01:04:52.047Z,248.35
2023-03-10T01:07:19.976Z,260.60
2023-03-10T01:09:48.986Z,250.43
2023-03-10T01:12:19.034Z,238.07
2023-03-10T01:14:46.920Z,242.70
2023-03-10T01:17:16.343Z,242.23
2023-03-10T01:19:44.239Z,241.93
2023-03-10T01:22:11.977Z,255.70
2023-03-10T01:24:39.676Z,252.02
2023-03-10T01:27:08.774Z,239.07
2023-03-10T01:29:36.469Z,245.40
2023-03-10T01:32:04.324Z,256.10
2023-03-10T01:34:32.211Z,236.70
2023-03-10T01:37:00.023Z,236.50
2023-03-10T01:39:28.280Z,224.40
2023-03-10T01:41:55.940Z,234.77
2023-03-10T01:44:24.952Z,223.40
2023-03-10T01:46:55.888Z,241.25
2023-03-10T01:49:39.217Z,223.73
2023-03-10T01:52:13.400Z,227.35
2023-03-10T01:54:50.128Z,220.80
2023-03-10T01:57:21.901Z,217.52
2023-03-10T01:59:51.774Z,225.38
2023-03-10T02:02:19.939Z,221.73
2023-03-10T02:04:49.462Z,224.15
2023-03-10T02:07:25.766Z,223.35
2023-03-10T02:09:56.553Z,206.90
2023-03-10T02:12:24.756Z,211.30
2023-03-10T02:14:55.419Z,212.25
2023-03-10T02:17:25.153Z,213.23
2023-03-10T02:20:06.365Z,204.27
2023-03-10T02:22:34.278Z,203.82
2023-03-10T02:25:08.511Z,213.15
2023-03-10T02:27:40.037Z,222.85
2023-03-10T02:30:12.217Z,235.80
2023-03-10T02:32:43.949Z,220.23
2023-03-10T02:35:12.474Z,221.85
2023-03-10T02:37:50.718Z,227.25
2023-03-10T02:40:32.387Z,240.88
2023-03-10T02:43:06.658Z,210.20
2023-03-10T02:45:38.756Z,220.73
2023-03-10T02:48:08.405Z,203.77
2023-03-10T02:50:40.629Z,219.05
2023-03-10T02:53:13.037Z,211.48
2023-03-10T02:55:41.061Z,216.43
2023-03-10T02:58:10.557Z,212.70
2023-03-10T03:00:39.047Z,231.82
2023-03-10T03:03:09.746Z,203.70
2023-03-10T03:05:38.359Z,217.63
2023-03-10T03:08:07.781Z,203.47
2023-03-10T03:10:36.895Z,216.73
2023-03-10T03:13:06.290Z,212.52
2023-03-10T03:15:35.802Z,208.70
2023-03-10T03:18:05.156Z,225.87
2023-03-10T03:20:36.643Z,211.40
2023-03-10T03:23:05.446Z,203.65
2023-03-10T03:25:37.005Z,221.93
2023-03-10T03:28:06.310Z,214.35
2023-03-10T03:30:36.072Z,209.80
2023-03-10T03:33:06.878Z,225.10
2023-03-10T03:35:38.351Z,216.95
2023-03-10T03:38:08.423Z,205.40
2023-03-10T03:40:38.336Z,207.07
2023-03-10T03:43:07.088Z,209.93
2023-03-10T03:45:37.219Z,203.60
2023-03-10T03:48:05.739Z,206.90
2023-03-10T03:50:36.280Z,212.18
2023-03-10T03:53:10.351Z,209.73
2023-03-10T03:55:39.304Z,213.03
2023-03-10T03:58:07.189Z,200.32
2023-03-10T04:00:35.585Z,220.68
2023-03-10T04:03:08.337Z,202.53
2023-03-10T04:05:36.639Z,193.98
2023-03-10T04:08:05.222Z,211.60
2023-03-10T04:10:32.999Z,202.35
2023-03-10T04:13:01.716Z,199.80
2023-03-10T04:15:31.442Z,211.48
2023-03-10T04:18:00.452Z,223.88
2023-03-10T04:20:30.258Z,209.57
2023-03-10T04:22:58.131Z,207.30
2023-03-10T04:25:31.440Z,213.20
2023-03-10T04:27:59.199Z,205.03
2023-03-10T04:30:29.586Z,211.53
2023-03-10T04:33:00.078Z,200.35
2023-03-10T04:35:31.674Z,224.30
2023-03-10T04:38:00.479Z,194.80
2023-03-10T04:40:28.883Z,224.47
2023-03-10T04:42:56.926Z,218.95
2023-03-10T04:45:24.709Z,226.03
2023-03-10T04:47:54.052Z,215.20
2023-03-10T04:50:22.042Z,227.80
2023-03-10T04:52:52.995Z,218.23
2023-03-10T04:55:25.164Z,210.90
2023-03-10T04:57:52.905Z,208.53
2023-03-10T05:00:21.006Z,216.13
2023-03-10T05:02:49.288Z,235.27
2023-03-10T05:05:17.121Z,228.03
2023-03-10T05:07:46.788Z,219.93
2023-03-10T05:10:15.962Z,240.52
2023-03-10T05:12:43.596Z,215.23
2023-03-10T05:15:12.998Z,232.95
2023-03-10T05:17:40.686Z,222.20
2023-03-10T05:20:10.639Z,221.32
2023-03-10T05:22:39.418Z,209.88
2023-03-10T05:25:11.514Z,234.02
2023-03-10T05:27:42.228Z,223.40
2023-03-10T05:30:15.430Z,214.20
2023-03-10T05:32:46.265Z,215.63
2023-03-10T05:35:15.339Z,214.82
2023-03-10T05:37:45.657Z,206.77
2023-03-10T05:40:15.552Z,224.25
2023-03-10T05:42:45.351Z,221.53
2023-03-10T05:45:13.459Z,225.98
2023-03-10T05:47:41.614Z,222.60
2023-03-10T05:50:11.356Z,230.03
2023-03-10T05:52:40.271Z,226.70
2023-03-10T05:55:12.264Z,231.90
2023-03-10T05:57:40.201Z,213.75
2023-03-10T06:00:11.817Z,224.63
2023-03-10T06:02:46.312Z,226.93
2023-03-10T06:05:14.144Z,215.23
2023-03-10T06:07:42.315Z,223.43
2023-03-10T06:10:11.401Z,211.00
2023-03-10T06:12:39.352Z,214.82
2023-03-10T06:15:09.639Z,202.27
2023-03-10T06:17:37.280Z,223.48
2023-03-10T06:20:05.670Z,219.10
2023-03-10T06:22:33.395Z,218.40
2023-03-10T06:25:01.240Z,219.02
2023-03-10T06:27:30.651Z,219.48
2023-03-10T06:29:58.373Z,215.63
2023-03-10T06:32:27.674Z,235.77
2023-03-10T06:34:55.392Z,218.88
2023-03-10T06:37:23.198Z,213.93
2023-03-10T06:39:50.920Z,229.90
2023-03-10T06:42:18.570Z,240.57
2023-03-10T06:44:48.816Z,240.38
2023-03-10T06:47:16.902Z,244.98
2023-03-10T06:49:45.875Z,228.80
2023-03-10T06:52:13.496Z,231.65
2023-03-10T06:54:41.621Z,230.57
2023-03-10T06:57:09.356Z,245.70
2023-03-10T06:59:37.158Z,243.68
2023-03-10T07:02:04.978Z,249.32
2023-03-10T07:04:33.066Z,244.10
2023-03-10T07:07:02.092Z,258.23
2023-03-10T07:09:29.855Z,241.30
2023-03-10T07:11:57.590Z,252.68
2023-03-10T07:14:25.239Z,252.07
2023-03-10T07:16:52.953Z,233.57
2023-03-10T07:19:20.905Z,255.15
2023-03-10T07:21:48.952Z,248.15
2023-03-10T07:24:19.594Z,257.90
2023-03-10T07:26:47.307Z,254.68
2023-03-10T07:29:14.921Z,263.30
2023-03-10T07:31:44.945Z,252.88
2023-03-10T07:34:12.697Z,233.40
2023-03-10T07:36:40.360Z,227.90
2023-03-10T07:39:08.114Z,251.48
2023-03-10T07:41:37.085Z,255.45
2023-03-10T07:44:04.764Z,241.98
2023-03-10T07:46:32.480Z,242.45
2023-03-10T07:49:04.092Z,246.35
2023-03-10T07:51:31.799Z,263.15
2023-03-10T07:53:59.724Z,241.02
2023-03-10T07:56:28.112Z,250.57
2023-03-10T07:58:57.068Z,234.02
2023-03-10T08:01:24.848Z,253.35
2023-03-10T08:03:52.797Z,235.75
2023-03-10T08:06:23.320Z,242.57
2023-03-10T08:08:51.436Z,242.43
2023-03-10T08:11:20.175Z,246.63
2023-03-10T08:13:48.769Z,246.10
2023-03-10T08:16:20.419Z,240.73
2023-03-10T08:18:49.918Z,246.57
2023-03-10T08:21:17.892Z,242.50
2023-03-10T08:23:45.662Z,254.60
2023-03-10T08:26:15.288Z,254.80
2023-03-10T08:28:43.272Z,235.25
2023-03-10T08:31:12.455Z,241.30
2023-03-10T08:33:42.945Z,223.50
2023-03-10T08:36:13.638Z,212.25
2023-03-10T08:38:42.234Z,223.75
2023-03-10T08:41:14.898Z,228.48
2023-03-10T08:43:43.188Z,231.75
2023-03-10T08:46:11.923Z,230.88
2023-03-10T08:48:42.905Z,226.70
2023-03-10T08:51:15.111Z,224.70
2023-03-10T08:53:46.576Z,237.63
2023-03-10T08:56:14.925Z,226.45
2023-03-10T08:58:42.838Z,226.00
2023-03-10T09:01:11.632Z,234.38
2023-03-10T09:03:41.827Z,229.82
2023-03-10T09:06:10.389Z,216.27
2023-03-10T09:08:39.633Z,248.07
2023-03-10T09:11:07.274Z,244.37
2023-03-10T09:13:35.001Z,223.30
2023-03-10T09:16:02.823Z,216.97
2023-03-10T09:18:30.573Z,214.90
2023-03-10T09:20:59.512Z,212.63
2023-03-10T09:23:27.220Z,216.75
2023-03-10T09:25:54.983Z,226.55
2023-03-10T09:28:22.667Z,217.80
2023-03-10T09:30:54.513Z,217.50
2023-03-10T09:33:23.327Z,219.75
2023-03-10T09:36:05.379Z,202.52
2023-03-10T09:38:35.547Z,202.23
2023-03-10T09:41:16.291Z,206.70
2023-03-10T09:43:50.681Z,202.40
2023-03-10T09:46:23.948Z,203.63
2023-03-10T09:48:59.263Z,210.38
2023-03-10T09:51:29.473Z,206.52
2023-03-10T09:54:18.514Z,204.60
2023-03-10T09:56:46.122Z,194.77
2023-03-10T09:59:17.956Z,196.88
2023-03-10T10:01:48.996Z,197.65
2023-03-10T10:04:20.221Z,203.27
2023-03-10T10:06:49.403Z,208.82
2023-03-10T10:09:28.882Z,219.57
2023-03-10T10:11:56.955Z,221.03
2023-03-10T10:14:30.042Z,210.87
2023-03-10T10:17:09.384Z,198.93
2023-03-10T10:19:39.763Z,207.30
2023-03-10T10:22:14.652Z,224.47
2023-03-10T10:24:59.717Z,209.60
2023-03-10T10:27:27.389Z,212.67
2023-03-10T10:29:55.011Z,206.30
2023-03-10T10:32:22.800Z,212.85
2023-03-10T10:34:50.480Z,212.43
2023-03-10T10:37:29.751Z,217.47
2023-03-10T10:40:01.025Z,227.73
2023-03-10T10:42:30.693Z,219.68
2023-03-10T10:44:59.679Z,205.02
2023-03-10T10:47:30.837Z,217.30
2023-03-10T10:50:18.940Z,219.38
2023-03-10T10:52:48.831Z,209.53
2023-03-10T10:55:29.845Z,234.50
2023-03-10T10:58:01.680Z,199.68
2023-03-10T11:00:31.837Z,212.27
2023-03-10T11:02:59.944Z,220.63
2023-03-10T11:05:35.838Z,218.75
2023-03-10T11:08:18.749Z,216.43
2023-03-10T11:10:54.630Z,201.77
2023-03-10T11:13:26.139Z,213.23
2023-03-10T11:16:01.466Z,221.75
2023-03-10T11:18:32.944Z,222.77
2023-03-10T11:21:09.902Z,215.80
2023-03-10T11:23:44.741Z,212.65
2023-03-10T11:26:22.176Z,202.93
2023-03-10T11:28:54.835Z,219.45
2023-03-10T11:31:34.314Z,215.93
2023-03-10T11:34:15.475Z,205.85
2023-03-10T11:36:55.896Z,214.20
2023-03-10T11:39:36.180Z,210.47
2023-03-10T11:42:14.980Z,222.02
2023-03-10T11:44:49.866Z,206.63
2023-03-10T11:47:25.769Z,219.80
2023-03-10T11:50:04.106Z,212.15
2023-03-10T11:52:33.994Z,221.50
2023-03-10T11:55:06.609Z,220.55
2023-03-10T11:57:40.636Z,204.38
2023-03-10T12:00:19.333Z,208.40
2023-03-10T12:02:55.702Z,206.60
2023-03-10T12:05:25.876Z,207.60
2023-03-10T12:07:56.466Z,216.30
2023-03-10T12:10:25.518Z,225.70
2023-03-10T12:12:55.229Z,212.75
2023-03-10T12:15:25.292Z,207.60
2023-03-10T12:17:54.455Z,211.73
2023-03-10T12:20:28.658Z,221.37
2023-03-10T12:22:57.715Z,215.87
2023-03-10T12:25:46.069Z,216.47
2023-03-10T12:28:24.403Z,203.23
2023-03-10T12:30:56.383Z,212.50
2023-03-10T12:34:01.775Z,200.00
2023-03-10T12:36:39.378Z,193.00
2023-03-10T12:39:38.901Z,220.17
2023-03-10T12:42:22.096Z,188.37
2023-03-10T12:44:56.540Z,215.97
2023-03-10T12:47:32.691Z,214.17
2023-03-10T12:50:07.030Z,224.00
2023-03-10T12:52:48.724Z,220.53
2023-03-10T12:55:21.004Z,216.33
2023-03-10T12:58:01.384Z,234.33
2023-03-10T13:00:40.448Z,228.60
2023-03-10T13:03:19.350Z,192.97
2023-03-10T13:06:00.823Z,232.50
2023-03-10T13:08:35.980Z,217.13
2023-03-10T13:11:04.700Z,236.03
2023-03-10T13:13:35.730Z,224.17
2023-03-10T13:16:07.232Z,216.07
2023-03-10T13:18:36.304Z,221.33
2023-03-10T13:21:04.037Z,224.33
2023-03-10T13:23:34.339Z,233.23
2023-03-10T13:26:06.796Z,258.63
2023-03-10T13:28:35.917Z,227.20
2023-03-10T13:31:21.216Z,236.97
2023-03-10T13:33:53.606Z,236.50
2023-03-10T13:36:23.917Z,227.67
2023-03-10T13:38:53.052Z,240.20
2023-03-10T13:41:21.122Z,239.70
2023-03-10T13:43:51.613Z,244.20
2023-03-10T13:46:25.482Z,240.30
2023-03-10T13:48:54.086Z,235.53
2023-03-10T13:51:23.980Z,240.43
2023-03-10T13:53:54.857Z,251.80
2023-03-10T13:56:25.650Z,243.43
2023-03-10T13:58:58.049Z,235.90
2023-03-10T14:01:30.332Z,242.00
2023-03-10T14:04:00.071Z,239.50
2023-03-10T14:06:30.049Z,235.60
2023-03-10T14:08:57.724Z,234.37
2023-03-10T14:11:33.368Z,247.07
2023-03-10T14:14:01.901Z,242.87
2023-03-10T14:16:51.364Z,240.67
2023-03-10T14:19:38.211Z,221.07
2023-03-10T14:22:22.552Z,223.27
2023-03-10T14:24:50.517Z,247.00
2023-03-10T14:27:18.607Z,239.63
2023-03-10T14:29:50.289Z,239.50
2023-03-10T14:32:19.456Z,241.97
2023-03-10T14:34:48.293Z,230.07
2023-03-10T14:37:16.378Z,249.40
2023-03-10T14:39:44.067Z,236.50
2023-03-10T14:42:20.949Z,266.13
2023-03-10T14:44:50.246Z,257.33
2023-03-10T14:47:19.438Z,235.77
2023-03-10T14:49:47.298Z,259.73
2023-03-10T14:52:16.928Z,264.07
2023-03-10T14:54:44.902Z,248.97
2023-03-10T14:57:15.898Z,243.17
2023-03-10T14:59:43.609Z,231.47
2023-03-10T15:02:19.762Z,233.90
2023-03-10T15:04:49.437Z,215.10
2023-03-10T15:07:17.641Z,218.20
2023-03-10T15:09:45.391Z,225.13
2023-03-10T15:12:15.013Z,209.27
2023-03-10T15:14:52.339Z,205.40
2023-03-10T15:17:20.002Z,215.63
2023-03-10T15:19:49.023Z,222.40
2023-03-10T15:22:16.715Z,199.83
2023-03-10T15:24:44.354Z,223.03
2023-03-10T15:27:13.169Z,200.23
2023-03-10T15:29:40.893Z,212.60
2023-03-10T15:32:08.827Z,200.70
2023-03-10T15:34:36.432Z,207.70
2023-03-10T15:37:07.318Z,202.83
2023-03-10T15:39:37.259Z,189.97
2023-03-10T15:42:05.163Z,191.50
2023-03-10T15:44:32.836Z,194.00
2023-03-10T15:47:00.564Z,209.43
2023-03-10T15:49:28.311Z,213.00
2023-03-10T15:51:56.086Z,212.13
2023-03-10T15:54:25.470Z,206.30
2023-03-10T15:56:53.169Z,216.07
2023-03-10T15:59:20.976Z,215.57
2023-03-10T16:01:48.694Z,218.53
2023-03-10T16:04:16.460Z,215.00
2023-03-10T16:06:44.254Z,216.40
2023-03-10T16:09:11.966Z,200.87
2023-03-10T16:11:41.178Z,211.80
2023-03-10T16:14:08.891Z,215.73
2023-03-10T16:16:36.688Z,201.77
2023-03-10T16:19:04.485Z,205.70
2023-03-10T16:21:32.523Z,216.33
2023-03-10T16:24:00.173Z,190.80
2023-03-10T16:26:27.906Z,183.83
2023-03-10T16:28:56.876Z,190.00
2023-03-10T16:31:26.955Z,198.43
2023-03-10T16:33:55.959Z,206.03
2023-03-10T16:36:25.187Z,208.27
2023-03-10T16:38:53.692Z,211.90
2023-03-10T16:41:23.171Z,194.37
2023-03-10T16:43:51.081Z,177.57
2023-03-10T16:46:25.438Z,195.93
2023-03-10T16:48:54.702Z,201.33
2023-03-10T16:51:26.550Z,191.10
2023-03-10T16:53:55.878Z,186.47
2023-03-10T16:56:25.065Z,181.37
2023-03-10T16:58:53.421Z,185.57
2023-03-10T17:01:23.876Z,179.63
2023-03-10T17:03:51.947Z,167.77
2023-03-10T17:06:22.678Z,166.80
2023-03-10T17:08:51.220Z,177.27
2023-03-10T17:11:20.717Z,171.63
2023-03-10T17:13:49.670Z,179.70
2023-03-10T17:16:18.871Z,172.63
2023-03-10T17:18:48.119Z,191.70
2023-03-10T17:21:18.174Z,172.67
2023-03-10T17:23:46.662Z,156.00
2023-03-10T17:26:15.131Z,171.73
2023-03-10T17:28:43.550Z,184.30
2023-03-10T17:31:13.616Z,166.13
2023-03-10T17:33:42.613Z,165.07
2023-03-10T17:36:14.782Z,172.20
2023-03-10T17:38:43.134Z,166.40
2023-03-10T17:41:12.692Z,176.73
2023-03-10T17:43:41.084Z,158.80
2023-03-10T17:46:12.087Z,155.53
2023-03-10T17:48:39.906Z,160.37
2023-03-10T17:51:08.057Z,164.70
2023-03-10T17:53:37.292Z,157.10
2023-03-10T17:56:05.859Z,156.47
2023-03-10T17:58:33.791Z,152.43
2023-03-10T18:01:07.971Z,143.47
2023-03-10T18:03:36.442Z,148.03
2023-03-10T18:06:05.011Z,145.77
2023-03-10T18:08:32.683Z,138.50
2023-03-10T18:11:02.603Z,162.70
2023-03-10T18:13:30.707Z,149.30
2023-03-10T18:15:59.037Z,141.23
2023-03-10T18:18:27.115Z,158.23
2023-03-10T18:20:54.771Z,144.07
2023-03-10T18:23:23.157Z,148.37
2023-03-10T18:25:51.721Z,132.57
2023-03-10T18:28:23.025Z,139.50
2023-03-10T18:30:52.990Z,132.70
2023-03-10T18:33:20.764Z,146.83
2023-03-10T18:35:48.653Z,128.83
2023-03-10T18:38:18.368Z,139.23
2023-03-10T18:40:46.035Z,150.30
2023-03-10T18:43:13.865Z,141.63
2023-03-10T18:45:44.435Z,131.60
2023-03-10T18:48:12.077Z,138.67
2023-03-10T18:50:39.698Z,144.70
2023-03-10T18:53:07.390Z,133.60
2023-03-10T18:55:35.057Z,121.27
2023-03-10T18:58:02.703Z,127.07
2023-03-10T19:00:30.485Z,143.83
2023-03-10T19:02:59.459Z,134.63
2023-03-10T19:05:27.952Z,135.70
2023-03-10T19:07:55.907Z,129.90
2023-03-10T19:10:23.887Z,141.63
2023-03-10T19:12:51.671Z,133.17
2023-03-10T19:15:19.430Z,131.07
2023-03-10T19:17:47.250Z,131.93
2023-03-10T19:20:18.192Z,124.53
2023-03-10T19:22:49.492Z,125.87
2023-03-10T19:25:17.643Z,118.20
2023-03-10T19:27:46.012Z,122.93
2023-03-10T19:30:17.124Z,121.90
2023-03-10T19:32:45.626Z,118.17
2023-03-10T19:35:14.057Z,119.83
2023-03-10T19:37:43.776Z,119.70
2023-03-10T19:40:15.663Z,115.30
2023-03-10T19:42:43.914Z,118.27
2023-03-10T19:45:12.990Z,109.67
2023-03-10T19:47:41.501Z,110.83
2023-03-10T19:50:11.019Z,112.00
2023-03-10T19:52:38.940Z,103.20
2023-03-10T19:55:09.408Z,101.53
2023-03-10T19:57:37.721Z,106.97
2023-03-10T20:00:07.616Z,98.27
2023-03-10T20:02:35.467Z,102.47
2023-03-10T20:05:03.480Z,91.60
2023-03-10T20:07:31.116Z,102.47
2023-03-10T20:09:58.757Z,90.17
2023-03-10T20:12:27.764Z,93.27
2023-03-10T20:14:58.654Z,91.47
2023-03-10T20:17:26.380Z,89.63
2023-03-10T20:19:54.035Z,93.17
2023-03-10T20:22:21.704Z,98.13
2023-03-10T20:24:49.320Z,94.53
2023-03-10T20:27:16.982Z,92.30
2023-03-10T20:29:46.137Z,97.10
2023-03-10T20:32:13.836Z,97.70
2023-03-10T20:34:41.530Z,100.63
2023-03-10T20:37:09.198Z,94.47
2023-03-10T20:39:37.386Z,96.00
2023-03-10T20:42:05.048Z,94.17
2023-03-10T20:44:33.197Z,92.63
2023-03-10T20:47:02.213Z,96.10
2023-03-10T20:49:30.331Z,92.63
2023-03-10T20:51:58.041Z,90.70
2023-03-10T20:54:25.833Z,94.97
2023-03-10T20:56:53.593Z,95.80
2023-03-10T20:59:21.229Z,93.70
2023-03-10T21:01:48.898Z,92.83
2023-03-10T21:04:19.858Z,95.77
2023-03-10T21:06:47.855Z,85.70
2023-03-10T21:09:16.389Z,85.03
2023-03-10T21:11:44.468Z,85.53
2023-03-10T21:14:12.146Z,86.13
2023-03-10T21:16:41.995Z,96.37
2023-03-10T21:19:10.215Z,83.80
2023-03-10T21:21:39.207Z,83.73
2023-03-10T21:24:07.126Z,74.87
2023-03-10T21:26:35.810Z,75.93
2023-03-10T21:29:04.282Z,73.17
2023-03-10T21:31:32.187Z,72.60
2023-03-10T21:33:59.834Z,76.03
2023-03-10T21:36:27.788Z,82.27
2023-03-10T21:38:56.828Z,81.20
2023-03-10T21:41:26.811Z,84.27
2023-03-10T21:43:55.645Z,72.80
2023-03-10T21:46:24.684Z,86.10
2023-03-10T21:48:53.216Z,83.80
2023-03-10T21:51:23.037Z,77.30
2023-03-10T21:53:51.703Z,87.23
2023-03-10T21:56:22.526Z,88.07
2023-03-10T21:58:50.438Z,83.80
2023-03-10T22:01:19.488Z,83.90
2023-03-10T22:03:47.405Z,81.27
2023-03-10T22:06:15.088Z,75.53
2023-03-10T22:08:43.075Z,85.00
2023-03-10T22:11:10.937Z,89.13
2023-03-10T22:13:40.315Z,82.83
2023-03-10T22:16:10.554Z,83.40
2023-03-10T22:18:38.630Z,84.53
2023-03-10T22:21:06.532Z,77.10
2023-03-10T22:23:34.267Z,82.93
2023-03-10T22:26:02.268Z,81.77
2023-03-10T22:28:29.883Z,86.33
2023-03-10T22:30:58.858Z,91.30
2023-03-10T22:33:26.643Z,87.03
2023-03-10T22:35:54.346Z,85.87
2023-03-10T22:38:23.457Z,88.60
2023-03-10T22:40:51.074Z,74.47
2023-03-10T22:43:18.746Z,76.13
2023-03-10T22:45:46.687Z,77.07
2023-03-10T22:48:15.648Z,90.10
2023-03-10T22:50:46.585Z,91.50
2023-03-10T22:53:15.925Z,73.00
2023-03-10T22:55:43.773Z,91.53
2023-03-10T22:58:11.968Z,85.03
2023-03-10T23:00:40.336Z,88.57
2023-03-10T23:03:08.961Z,80.33
2023-03-10T23:05:38.095Z,79.83
2023-03-10T23:08:06.970Z,74.70
2023-03-10T23:10:36.757Z,86.73
2023-03-10T23:13:06.851Z,83.17
2023-03-10T23:15:38.401Z,83.43
2023-03-10T23:18:07.301Z,84.80
2023-03-10T23:20:39.449Z,80.13
2023-03-10T23:23:08.575Z,83.93
2023-03-10T23:25:38.398Z,81.97
2023-03-10T23:28:08.508Z,77.63
2023-03-10T23:30:39.162Z,74.13
2023-03-10T23:33:08.246Z,71.90
2023-03-10T23:35:38.352Z,76.93
2023-03-10T23:38:06.648Z,74.90
2023-03-10T23:40:35.853Z,71.60
2023-03-10T23:43:05.818Z,65.53
2023-03-10T23:45:34.152Z,67.63
2023-03-10T23:48:02.675Z,71.50
2023-03-10T23:50:32.789Z,70.77
2023-03-10T23:53:02.479Z,71.20
2023-03-10T23:55:33.005Z,76.03
2023-03-10T23:58:01.472Z,77.53
